sensor_id;sensor_type;location;lat;lon;timestamp;P1;durP1;ratioP1;P2;durP2;ratioP2
78508;SDS011;67802;50.846;7.958;2023-05-31T00:00:56;8.30;;;2.93;;
78508;SDS011;67802;50.846;7.958;2023-05-31T00:03:22;6.72;;;2.67;;
78508;SDS011;67802;50.846;7.958;2023-05-31T00:05:47;6.33;;;2.90;;
78508;SDS011;67802;50.846;7.958;2023-05-31T00:08:12;7.83;;;3.03;;
78508;SDS011;67802;50.846;7.958;2023-05-31T00:10:38;8.93;;;3.25;;
78508;SDS011;67802;50.846;7.958;2023-05-31T00:13:03;6.53;;;2.90;;
78508;SDS011;67802;50.846;7.958;2023-05-31T00:15:28;8.25;;;3.38;;
78508;SDS011;67802;50.846;7.958;2023-05-31T00:17:54;7.55;;;2.88;;
78508;SDS011;67802;50.846;7.958;2023-05-31T00:20:20;8.85;;;3.42;;
78508;SDS011;67802;50.846;7.958;2023-05-31T00:22:45;8.88;;;2.90;;
78508;SDS011;67802;50.846;7.958;2023-05-31T00:25:11;8.88;;;3.50;;
78508;SDS011;67802;50.846;7.958;2023-05-31T00:27:36;6.88;;;3.03;;
78508;SDS011;67802;50.846;7.958;2023-05-31T00:30:01;7.82;;;2.80;;
78508;SDS011;67802;50.846;7.958;2023-05-31T00:32:27;7.70;;;3.28;;
78508;SDS011;67802;50.846;7.958;2023-05-31T00:34:52;6.63;;;2.73;;
78508;SDS011;67802;50.846;7.958;2023-05-31T00:37:17;7.17;;;3.00;;
78508;SDS011;67802;50.846;7.958;2023-05-31T00:39:43;7.50;;;3.00;;
78508;SDS011;67802;50.846;7.958;2023-05-31T00:42:08;8.93;;;3.30;;
78508;SDS011;67802;50.846;7.958;2023-05-31T00:44:34;7.15;;;2.40;;
78508;SDS011;67802;50.846;7.958;2023-05-31T00:47:00;6.18;;;2.83;;
78508;SDS011;67802;50.846;7.958;2023-05-31T00:49:25;7.72;;;3.17;;
78508;SDS011;67802;50.846;7.958;2023-05-31T00:51:51;6.78;;;2.67;;
78508;SDS011;67802;50.846;7.958;2023-05-31T00:54:17;6.03;;;2.92;;
78508;SDS011;67802;50.846;7.958;2023-05-31T00:56:43;7.28;;;2.90;;
78508;SDS011;67802;50.846;7.958;2023-05-31T00:59:08;8.57;;;3.28;;
78508;SDS011;67802;50.846;7.958;2023-05-31T01:01:34;10.63;;;3.53;;
78508;SDS011;67802;50.846;7.958;2023-05-31T01:03:59;5.70;;;2.60;;
78508;SDS011;67802;50.846;7.958;2023-05-31T01:06:25;8.43;;;2.92;;
78508;SDS011;67802;50.846;7.958;2023-05-31T01:08:53;8.95;;;3.13;;
78508;SDS011;67802;50.846;7.958;2023-05-31T01:11:25;9.77;;;2.92;;
78508;SDS011;67802;50.846;7.958;2023-05-31T01:14:10;8.65;;;2.95;;
78508;SDS011;67802;50.846;7.958;2023-05-31T01:16:47;7.00;;;3.33;;
78508;SDS011;67802;50.846;7.958;2023-05-31T01:25:13;7.57;;;3.15;;
78508;SDS011;67802;50.846;7.958;2023-05-31T01:28:04;7.20;;;2.90;;
78508;SDS011;67802;50.846;7.958;2023-05-31T01:30:32;6.78;;;2.88;;
78508;SDS011;67802;50.846;7.958;2023-05-31T01:33:00;9.35;;;3.35;;
78508;SDS011;67802;50.846;7.958;2023-05-31T01:35:28;6.55;;;3.10;;
78508;SDS011;67802;50.846;7.958;2023-05-31T01:37:54;7.53;;;2.83;;
78508;SDS011;67802;50.846;7.958;2023-05-31T01:40:19;8.48;;;2.95;;
78508;SDS011;67802;50.846;7.958;2023-05-31T01:42:45;8.95;;;3.05;;
78508;SDS011;67802;50.846;7.958;2023-05-31T01:45:11;8.20;;;3.10;;
78508;SDS011;67802;50.846;7.958;2023-05-31T01:47:39;7.90;;;2.58;;
78508;SDS011;67802;50.846;7.958;2023-05-31T01:50:07;8.88;;;3.30;;
78508;SDS011;67802;50.846;7.958;2023-05-31T01:52:34;6.03;;;2.58;;
78508;SDS011;67802;50.846;7.958;2023-05-31T01:55:00;5.97;;;2.70;;
78508;SDS011;67802;50.846;7.958;2023-05-31T01:57:27;6.80;;;3.10;;
78508;SDS011;67802;50.846;7.958;2023-05-31T01:59:54;7.45;;;2.97;;
78508;SDS011;67802;50.846;7.958;2023-05-31T02:02:21;6.47;;;2.90;;
78508;SDS011;67802;50.846;7.958;2023-05-31T02:04:47;8.07;;;3.00;;
78508;SDS011;67802;50.846;7.958;2023-05-31T02:07:13;7.30;;;2.77;;
78508;SDS011;67802;50.846;7.958;2023-05-31T02:09:38;6.00;;;2.90;;
78508;SDS011;67802;50.846;7.958;2023-05-31T02:12:03;9.80;;;3.63;;
78508;SDS011;67802;50.846;7.958;2023-05-31T02:14:29;7.90;;;3.03;;
78508;SDS011;67802;50.846;7.958;2023-05-31T02:16:54;7.35;;;2.90;;
78508;SDS011;67802;50.846;7.958;2023-05-31T02:19:20;7.47;;;2.83;;
78508;SDS011;67802;50.846;7.958;2023-05-31T02:21:50;6.53;;;2.55;;
78508;SDS011;67802;50.846;7.958;2023-05-31T02:24:15;6.90;;;3.08;;
78508;SDS011;67802;50.846;7.958;2023-05-31T02:26:41;8.37;;;2.60;;
78508;SDS011;67802;50.846;7.958;2023-05-31T02:29:06;5.33;;;2.87;;
78508;SDS011;67802;50.846;7.958;2023-05-31T02:31:31;6.28;;;2.88;;
78508;SDS011;67802;50.846;7.958;2023-05-31T02:33:57;7.72;;;3.03;;
78508;SDS011;67802;50.846;7.958;2023-05-31T02:36:22;10.63;;;3.00;;
78508;SDS011;67802;50.846;7.958;2023-05-31T02:38:47;6.95;;;2.90;;
78508;SDS011;67802;50.846;7.958;2023-05-31T02:41:13;5.72;;;2.78;;
78508;SDS011;67802;50.846;7.958;2023-05-31T02:43:39;7.20;;;2.90;;
78508;SDS011;67802;50.846;7.958;2023-05-31T02:46:04;6.55;;;2.50;;
78508;SDS011;67802;50.846;7.958;2023-05-31T02:48:30;7.97;;;2.90;;
78508;SDS011;67802;50.846;7.958;2023-05-31T02:50:55;6.70;;;2.63;;
78508;SDS011;67802;50.846;7.958;2023-05-31T02:53:21;6.78;;;2.30;;
78508;SDS011;67802;50.846;7.958;2023-05-31T02:55:46;5.97;;;2.40;;
78508;SDS011;67802;50.846;7.958;2023-05-31T02:58:11;6.68;;;2.72;;
78508;SDS011;67802;50.846;7.958;2023-05-31T03:00:39;9.27;;;2.88;;
78508;SDS011;67802;50.846;7.958;2023-05-31T03:03:04;5.13;;;2.28;;
78508;SDS011;67802;50.846;7.958;2023-05-31T03:05:30;5.82;;;2.40;;
78508;SDS011;67802;50.846;7.958;2023-05-31T03:07:56;6.97;;;2.33;;
78508;SDS011;67802;50.846;7.958;2023-05-31T03:10:21;8.43;;;3.03;;
78508;SDS011;67802;50.846;7.958;2023-05-31T03:12:47;5.20;;;2.05;;
78508;SDS011;67802;50.846;7.958;2023-05-31T03:15:12;6.55;;;2.55;;
78508;SDS011;67802;50.846;7.958;2023-05-31T03:17:38;7.63;;;2.65;;
78508;SDS011;67802;50.846;7.958;2023-05-31T03:20:04;7.80;;;2.67;;
78508;SDS011;67802;50.846;7.958;2023-05-31T03:22:33;6.80;;;2.60;;
78508;SDS011;67802;50.846;7.958;2023-05-31T03:24:59;6.88;;;2.50;;
78508;SDS011;67802;50.846;7.958;2023-05-31T03:27:24;6.18;;;2.35;;
78508;SDS011;67802;50.846;7.958;2023-05-31T03:29:49;5.40;;;2.47;;
78508;SDS011;67802;50.846;7.958;2023-05-31T03:32:15;7.93;;;2.90;;
78508;SDS011;67802;50.846;7.958;2023-05-31T03:34:40;8.23;;;2.90;;
78508;SDS011;67802;50.846;7.958;2023-05-31T03:37:05;7.15;;;2.60;;
78508;SDS011;67802;50.846;7.958;2023-05-31T03:39:31;6.18;;;2.67;;
78508;SDS011;67802;50.846;7.958;2023-05-31T03:41:56;6.00;;;2.53;;
78508;SDS011;67802;50.846;7.958;2023-05-31T03:44:22;9.17;;;2.77;;
78508;SDS011;67802;50.846;7.958;2023-05-31T03:46:47;5.90;;;2.25;;
78508;SDS011;67802;50.846;7.958;2023-05-31T03:49:12;7.33;;;2.77;;
78508;SDS011;67802;50.846;7.958;2023-05-31T03:51:38;6.00;;;2.50;;
78508;SDS011;67802;50.846;7.958;2023-05-31T03:54:03;7.95;;;2.92;;
78508;SDS011;67802;50.846;7.958;2023-05-31T03:56:28;7.78;;;2.42;;
78508;SDS011;67802;50.846;7.958;2023-05-31T03:58:54;6.13;;;2.97;;
78508;SDS011;67802;50.846;7.958;2023-05-31T04:01:20;8.20;;;2.88;;
78508;SDS011;67802;50.846;7.958;2023-05-31T04:03:45;6.40;;;2.45;;
78508;SDS011;67802;50.846;7.958;2023-05-31T04:06:11;8.70;;;2.50;;
78508;SDS011;67802;50.846;7.958;2023-05-31T04:08:36;5.88;;;2.85;;
78508;SDS011;67802;50.846;7.958;2023-05-31T04:11:01;8.57;;;2.67;;
78508;SDS011;67802;50.846;7.958;2023-05-31T04:13:27;7.38;;;2.65;;
78508;SDS011;67802;50.846;7.958;2023-05-31T04:15:53;8.38;;;3.03;;
78508;SDS011;67802;50.846;7.958;2023-05-31T04:18:18;5.90;;;2.55;;
78508;SDS011;67802;50.846;7.958;2023-05-31T04:20:43;7.03;;;2.63;;
78508;SDS011;67802;50.846;7.958;2023-05-31T04:23:09;7.10;;;2.63;;
78508;SDS011;67802;50.846;7.958;2023-05-31T04:25:34;9.60;;;2.95;;
78508;SDS011;67802;50.846;7.958;2023-05-31T04:28:00;7.28;;;3.10;;
78508;SDS011;67802;50.846;7.958;2023-05-31T04:30:26;6.72;;;2.75;;
78508;SDS011;67802;50.846;7.958;2023-05-31T04:32:52;7.35;;;2.58;;
78508;SDS011;67802;50.846;7.958;2023-05-31T04:35:17;9.13;;;2.90;;
78508;SDS011;67802;50.846;7.958;2023-05-31T04:37:43;8.02;;;2.75;;
78508;SDS011;67802;50.846;7.958;2023-05-31T04:40:09;6.07;;;2.53;;
78508;SDS011;67802;50.846;7.958;2023-05-31T04:42:35;7.82;;;2.92;;
78508;SDS011;67802;50.846;7.958;2023-05-31T04:45:01;6.25;;;2.67;;
78508;SDS011;67802;50.846;7.958;2023-05-31T04:47:32;6.20;;;2.40;;
78508;SDS011;67802;50.846;7.958;2023-05-31T04:50:00;7.45;;;3.05;;
78508;SDS011;67802;50.846;7.958;2023-05-31T04:52:28;6.32;;;2.65;;
78508;SDS011;67802;50.846;7.958;2023-05-31T04:54:56;6.82;;;2.90;;
78508;SDS011;67802;50.846;7.958;2023-05-31T04:57:22;6.50;;;2.40;;
78508;SDS011;67802;50.846;7.958;2023-05-31T04:59:48;6.40;;;2.67;;
78508;SDS011;67802;50.846;7.958;2023-05-31T05:02:14;7.22;;;2.90;;
78508;SDS011;67802;50.846;7.958;2023-05-31T05:04:39;7.75;;;2.70;;
78508;SDS011;67802;50.846;7.958;2023-05-31T05:07:05;5.72;;;2.65;;
78508;SDS011;67802;50.846;7.958;2023-05-31T05:09:31;6.68;;;2.47;;
78508;SDS011;67802;50.846;7.958;2023-05-31T05:11:57;6.43;;;2.40;;
78508;SDS011;67802;50.846;7.958;2023-05-31T05:14:22;7.60;;;2.70;;
78508;SDS011;67802;50.846;7.958;2023-05-31T05:16:47;6.47;;;2.67;;
78508;SDS011;67802;50.846;7.958;2023-05-31T05:19:13;5.85;;;2.50;;
78508;SDS011;67802;50.846;7.958;2023-05-31T05:21:38;5.70;;;2.45;;
78508;SDS011;67802;50.846;7.958;2023-05-31T05:24:03;7.57;;;2.60;;
78508;SDS011;67802;50.846;7.958;2023-05-31T05:26:29;4.97;;;2.33;;
78508;SDS011;67802;50.846;7.958;2023-05-31T05:28:55;5.60;;;2.13;;
78508;SDS011;67802;50.846;7.958;2023-05-31T05:31:20;5.05;;;2.20;;
78508;SDS011;67802;50.846;7.958;2023-05-31T05:33:45;5.60;;;2.30;;
78508;SDS011;67802;50.846;7.958;2023-05-31T05:36:10;5.60;;;2.40;;
78508;SDS011;67802;50.846;7.958;2023-05-31T05:38:36;5.82;;;2.20;;
78508;SDS011;67802;50.846;7.958;2023-05-31T05:41:01;5.47;;;2.30;;
78508;SDS011;67802;50.846;7.958;2023-05-31T05:43:27;6.38;;;2.28;;
78508;SDS011;67802;50.846;7.958;2023-05-31T05:45:54;6.32;;;2.38;;
78508;SDS011;67802;50.846;7.958;2023-05-31T05:48:19;6.05;;;2.10;;
78508;SDS011;67802;50.846;7.958;2023-05-31T05:50:44;6.82;;;2.10;;
78508;SDS011;67802;50.846;7.958;2023-05-31T05:53:10;6.18;;;2.72;;
78508;SDS011;67802;50.846;7.958;2023-05-31T05:55:36;6.03;;;2.25;;
78508;SDS011;67802;50.846;7.958;2023-05-31T05:58:02;6.90;;;2.20;;
78508;SDS011;67802;50.846;7.958;2023-05-31T06:00:27;7.20;;;2.38;;
78508;SDS011;67802;50.846;7.958;2023-05-31T06:02:53;6.90;;;2.30;;
78508;SDS011;67802;50.846;7.958;2023-05-31T06:05:18;6.65;;;2.58;;
78508;SDS011;67802;50.846;7.958;2023-05-31T06:07:50;5.03;;;2.30;;
78508;SDS011;67802;50.846;7.958;2023-05-31T06:10:16;5.40;;;1.88;;
78508;SDS011;67802;50.846;7.958;2023-05-31T06:12:41;6.22;;;2.03;;
78508;SDS011;67802;50.846;7.958;2023-05-31T06:15:07;5.70;;;2.00;;
78508;SDS011;67802;50.846;7.958;2023-05-31T06:17:32;4.82;;;2.10;;
78508;SDS011;67802;50.846;7.958;2023-05-31T06:19:58;4.68;;;2.20;;
78508;SDS011;67802;50.846;7.958;2023-05-31T06:22:23;5.65;;;2.40;;
78508;SDS011;67802;50.846;7.958;2023-05-31T06:24:48;4.60;;;1.80;;
78508;SDS011;67802;50.846;7.958;2023-05-31T06:27:14;5.43;;;2.05;;
78508;SDS011;67802;50.846;7.958;2023-05-31T06:29:39;5.65;;;2.00;;
78508;SDS011;67802;50.846;7.958;2023-05-31T06:32:05;6.28;;;2.28;;
78508;SDS011;67802;50.846;7.958;2023-05-31T06:34:30;5.13;;;1.83;;
78508;SDS011;67802;50.846;7.958;2023-05-31T06:36:55;5.00;;;1.90;;
78508;SDS011;67802;50.846;7.958;2023-05-31T06:39:21;6.28;;;2.03;;
78508;SDS011;67802;50.846;7.958;2023-05-31T06:41:46;5.10;;;2.25;;
78508;SDS011;67802;50.846;7.958;2023-05-31T06:44:12;6.50;;;2.05;;
78508;SDS011;67802;50.846;7.958;2023-05-31T06:46:37;5.30;;;1.90;;
78508;SDS011;67802;50.846;7.958;2023-05-31T06:49:02;5.40;;;2.10;;
78508;SDS011;67802;50.846;7.958;2023-05-31T06:51:28;5.95;;;2.20;;
78508;SDS011;67802;50.846;7.958;2023-05-31T06:53:53;5.70;;;2.30;;
78508;SDS011;67802;50.846;7.958;2023-05-31T06:56:18;6.27;;;2.20;;
78508;SDS011;67802;50.846;7.958;2023-05-31T06:58:43;5.93;;;2.10;;
78508;SDS011;67802;50.846;7.958;2023-05-31T07:01:10;5.95;;;2.30;;
78508;SDS011;67802;50.846;7.958;2023-05-31T07:03:35;6.05;;;2.42;;
78508;SDS011;67802;50.846;7.958;2023-05-31T07:06:00;5.17;;;1.80;;
78508;SDS011;67802;50.846;7.958;2023-05-31T07:08:26;5.20;;;1.83;;
78508;SDS011;67802;50.846;7.958;2023-05-31T07:10:51;5.72;;;2.20;;
78508;SDS011;67802;50.846;7.958;2023-05-31T07:13:18;5.25;;;1.85;;
78508;SDS011;67802;50.846;7.958;2023-05-31T07:15:43;4.50;;;1.80;;
78508;SDS011;67802;50.846;7.958;2023-05-31T07:18:09;6.07;;;1.83;;
78508;SDS011;67802;50.846;7.958;2023-05-31T07:20:34;5.70;;;2.05;;
78508;SDS011;67802;50.846;7.958;2023-05-31T07:23:00;4.07;;;1.75;;
78508;SDS011;67802;50.846;7.958;2023-05-31T07:25:25;5.25;;;1.80;;
78508;SDS011;67802;50.846;7.958;2023-05-31T07:27:50;5.03;;;1.85;;
78508;SDS011;67802;50.846;7.958;2023-05-31T07:30:16;5.83;;;1.90;;
78508;SDS011;67802;50.846;7.958;2023-05-31T07:32:41;4.07;;;1.50;;
78508;SDS011;67802;50.846;7.958;2023-05-31T07:35:06;3.60;;;1.40;;
78508;SDS011;67802;50.846;7.958;2023-05-31T07:37:32;4.90;;;1.80;;
78508;SDS011;67802;50.846;7.958;2023-05-31T07:39:58;4.93;;;1.63;;
78508;SDS011;67802;50.846;7.958;2023-05-31T07:42:23;3.85;;;1.40;;
78508;SDS011;67802;50.846;7.958;2023-05-31T07:44:49;4.22;;;1.60;;
78508;SDS011;67802;50.846;7.958;2023-05-31T07:47:15;4.38;;;1.42;;
78508;SDS011;67802;50.846;7.958;2023-05-31T07:49:41;4.72;;;1.65;;
78508;SDS011;67802;50.846;7.958;2023-05-31T07:52:06;7.88;;;1.92;;
78508;SDS011;67802;50.846;7.958;2023-05-31T07:54:32;7.00;;;2.05;;
78508;SDS011;67802;50.846;7.958;2023-05-31T07:56:57;3.75;;;1.60;;
78508;SDS011;67802;50.846;7.958;2023-05-31T07:59:22;6.82;;;1.83;;
78508;SDS011;67802;50.846;7.958;2023-05-31T08:01:49;4.88;;;1.80;;
78508;SDS011;67802;50.846;7.958;2023-05-31T08:04:14;7.03;;;1.95;;
78508;SDS011;67802;50.846;7.958;2023-05-31T08:06:40;5.53;;;1.77;;
78508;SDS011;67802;50.846;7.958;2023-05-31T08:09:07;5.10;;;1.45;;
78508;SDS011;67802;50.846;7.958;2023-05-31T08:11:32;6.03;;;1.67;;
78508;SDS011;67802;50.846;7.958;2023-05-31T08:14:01;5.55;;;1.88;;
78508;SDS011;67802;50.846;7.958;2023-05-31T08:16:28;6.55;;;1.85;;
78508;SDS011;67802;50.846;7.958;2023-05-31T08:18:54;5.28;;;1.80;;
78508;SDS011;67802;50.846;7.958;2023-05-31T08:21:20;5.00;;;1.60;;
78508;SDS011;67802;50.846;7.958;2023-05-31T08:23:45;4.75;;;1.58;;
78508;SDS011;67802;50.846;7.958;2023-05-31T08:26:10;7.10;;;2.00;;
78508;SDS011;67802;50.846;7.958;2023-05-31T08:28:35;5.65;;;2.05;;
78508;SDS011;67802;50.846;7.958;2023-05-31T08:31:01;6.40;;;1.80;;
78508;SDS011;67802;50.846;7.958;2023-05-31T08:33:27;5.53;;;1.65;;
78508;SDS011;67802;50.846;7.958;2023-05-31T08:35:57;4.80;;;1.70;;
78508;SDS011;67802;50.846;7.958;2023-05-31T08:38:26;5.47;;;1.75;;
78508;SDS011;67802;50.846;7.958;2023-05-31T08:40:52;6.65;;;1.75;;
78508;SDS011;67802;50.846;7.958;2023-05-31T08:43:17;4.60;;;1.75;;
78508;SDS011;67802;50.846;7.958;2023-05-31T08:45:46;5.43;;;1.60;;
78508;SDS011;67802;50.846;7.958;2023-05-31T08:50:46;3.95;;;1.67;;
78508;SDS011;67802;50.846;7.958;2023-05-31T08:53:12;6.07;;;1.70;;
78508;SDS011;67802;50.846;7.958;2023-05-31T08:55:40;6.25;;;1.80;;
78508;SDS011;67802;50.846;7.958;2023-05-31T08:58:07;3.50;;;1.38;;
78508;SDS011;67802;50.846;7.958;2023-05-31T09:00:35;3.97;;;1.52;;
78508;SDS011;67802;50.846;7.958;2023-05-31T09:03:01;5.82;;;1.60;;
78508;SDS011;67802;50.846;7.958;2023-05-31T09:05:26;5.72;;;1.65;;
78508;SDS011;67802;50.846;7.958;2023-05-31T09:07:52;6.32;;;1.80;;
78508;SDS011;67802;50.846;7.958;2023-05-31T09:10:17;5.78;;;1.90;;
78508;SDS011;67802;50.846;7.958;2023-05-31T09:12:44;4.38;;;1.70;;
78508;SDS011;67802;50.846;7.958;2023-05-31T09:15:12;7.88;;;1.92;;
78508;SDS011;67802;50.846;7.958;2023-05-31T09:17:41;5.05;;;1.45;;
78508;SDS011;67802;50.846;7.958;2023-05-31T09:20:09;5.15;;;1.60;;
78508;SDS011;67802;50.846;7.958;2023-05-31T09:22:35;4.32;;;1.67;;
78508;SDS011;67802;50.846;7.958;2023-05-31T09:25:01;5.95;;;2.00;;
78508;SDS011;67802;50.846;7.958;2023-05-31T09:27:27;8.15;;;1.70;;
78508;SDS011;67802;50.846;7.958;2023-05-31T09:29:59;4.35;;;1.75;;
78508;SDS011;67802;50.846;7.958;2023-05-31T09:32:39;5.25;;;1.92;;
78508;SDS011;67802;50.846;7.958;2023-05-31T09:35:11;4.68;;;1.75;;
78508;SDS011;67802;50.846;7.958;2023-05-31T09:37:49;4.03;;;1.73;;
78508;SDS011;67802;50.846;7.958;2023-05-31T09:40:15;6.30;;;1.60;;
78508;SDS011;67802;50.846;7.958;2023-05-31T09:42:48;5.65;;;1.85;;
78508;SDS011;67802;50.846;7.958;2023-05-31T09:45:14;4.28;;;1.50;;
78508;SDS011;67802;50.846;7.958;2023-05-31T09:47:40;4.40;;;1.67;;
78508;SDS011;67802;50.846;7.958;2023-05-31T09:50:24;6.82;;;1.70;;
78508;SDS011;67802;50.846;7.958;2023-05-31T09:52:55;4.25;;;1.70;;
78508;SDS011;67802;50.846;7.958;2023-05-31T09:55:22;5.50;;;1.80;;
78508;SDS011;67802;50.846;7.958;2023-05-31T09:57:48;6.03;;;1.70;;
78508;SDS011;67802;50.846;7.958;2023-05-31T10:00:17;4.60;;;1.70;;
78508;SDS011;67802;50.846;7.958;2023-05-31T10:02:46;8.38;;;1.92;;
78508;SDS011;67802;50.846;7.958;2023-05-31T10:05:16;7.22;;;2.13;;
78508;SDS011;67802;50.846;7.958;2023-05-31T10:07:43;6.95;;;1.90;;
78508;SDS011;67802;50.846;7.958;2023-05-31T10:10:10;5.25;;;1.60;;
78508;SDS011;67802;50.846;7.958;2023-05-31T10:15:23;4.40;;;1.70;;
78508;SDS011;67802;50.846;7.958;2023-05-31T10:18:00;5.63;;;1.67;;
78508;SDS011;67802;50.846;7.958;2023-05-31T10:20:29;6.20;;;2.05;;
78508;SDS011;67802;50.846;7.958;2023-05-31T10:23:01;5.47;;;1.65;;
78508;SDS011;67802;50.846;7.958;2023-05-31T10:25:56;3.97;;;1.48;;
78508;SDS011;67802;50.846;7.958;2023-05-31T10:28:19;3.70;;;1.60;;
78508;SDS011;67802;50.846;7.958;2023-05-31T10:30:52;4.93;;;1.67;;
78508;SDS011;67802;50.846;7.958;2023-05-31T10:33:17;3.83;;;1.50;;
78508;SDS011;67802;50.846;7.958;2023-05-31T10:35:45;3.65;;;1.65;;
78508;SDS011;67802;50.846;7.958;2023-05-31T10:38:11;4.28;;;1.77;;
78508;SDS011;67802;50.846;7.958;2023-05-31T10:40:53;4.22;;;1.60;;
78508;SDS011;67802;50.846;7.958;2023-05-31T10:46:01;4.53;;;1.70;;
78508;SDS011;67802;50.846;7.958;2023-05-31T10:51:04;3.97;;;1.65;;
78508;SDS011;67802;50.846;7.958;2023-05-31T10:53:30;3.65;;;1.40;;
78508;SDS011;67802;50.846;7.958;2023-05-31T10:56:06;3.65;;;1.55;;
78508;SDS011;67802;50.846;7.958;2023-05-31T10:58:41;3.72;;;1.55;;
78508;SDS011;67802;50.846;7.958;2023-05-31T11:01:14;4.22;;;1.45;;
78508;SDS011;67802;50.846;7.958;2023-05-31T11:03:47;4.07;;;1.58;;
78508;SDS011;67802;50.846;7.958;2023-05-31T11:06:14;3.65;;;1.50;;
78508;SDS011;67802;50.846;7.958;2023-05-31T11:11:45;3.72;;;1.40;;
78508;SDS011;67802;50.846;7.958;2023-05-31T11:19:19;4.07;;;1.52;;
78508;SDS011;67802;50.846;7.958;2023-05-31T11:21:53;4.85;;;1.42;;
78508;SDS011;67802;50.846;7.958;2023-05-31T11:24:36;4.78;;;1.58;;
78508;SDS011;67802;50.846;7.958;2023-05-31T11:27:14;4.32;;;1.50;;
78508;SDS011;67802;50.846;7.958;2023-05-31T11:32:17;3.38;;;1.40;;
78508;SDS011;67802;50.846;7.958;2023-05-31T11:34:54;5.32;;;1.50;;
78508;SDS011;67802;50.846;7.958;2023-05-31T11:37:32;4.22;;;1.40;;
78508;SDS011;67802;50.846;7.958;2023-05-31T11:39:59;4.63;;;1.52;;
78508;SDS011;67802;50.846;7.958;2023-05-31T11:42:29;4.25;;;1.58;;
78508;SDS011;67802;50.846;7.958;2023-05-31T11:44:55;3.03;;;1.40;;
78508;SDS011;67802;50.846;7.958;2023-05-31T11:47:24;4.00;;;1.58;;
78508;SDS011;67802;50.846;7.958;2023-05-31T11:49:50;4.28;;;1.63;;
78508;SDS011;67802;50.846;7.958;2023-05-31T11:52:17;4.68;;;1.27;;
78508;SDS011;67802;50.846;7.958;2023-05-31T11:54:44;2.83;;;1.30;;
78508;SDS011;67802;50.846;7.958;2023-05-31T11:57:10;3.72;;;1.38;;
78508;SDS011;67802;50.846;7.958;2023-05-31T11:59:36;3.35;;;1.35;;
78508;SDS011;67802;50.846;7.958;2023-05-31T12:02:03;3.20;;;1.30;;
78508;SDS011;67802;50.846;7.958;2023-05-31T12:04:34;4.22;;;1.48;;
78508;SDS011;67802;50.846;7.958;2023-05-31T12:07:02;4.60;;;1.60;;
78508;SDS011;67802;50.846;7.958;2023-05-31T12:09:29;6.72;;;1.40;;
78508;SDS011;67802;50.846;7.958;2023-05-31T12:11:54;4.22;;;1.50;;
78508;SDS011;67802;50.846;7.958;2023-05-31T12:14:21;3.90;;;1.45;;
78508;SDS011;67802;50.846;7.958;2023-05-31T12:16:51;3.58;;;1.45;;
78508;SDS011;67802;50.846;7.958;2023-05-31T12:19:16;3.97;;;1.63;;
78508;SDS011;67802;50.846;7.958;2023-05-31T12:21:42;4.75;;;1.67;;
78508;SDS011;67802;50.846;7.958;2023-05-31T12:24:12;6.00;;;1.80;;
78508;SDS011;67802;50.846;7.958;2023-05-31T12:26:38;3.88;;;1.50;;
78508;SDS011;67802;50.846;7.958;2023-05-31T12:29:04;4.53;;;1.40;;
78508;SDS011;67802;50.846;7.958;2023-05-31T12:31:29;5.35;;;1.80;;
78508;SDS011;67802;50.846;7.958;2023-05-31T12:36:29;4.15;;;1.50;;
78508;SDS011;67802;50.846;7.958;2023-05-31T12:39:22;3.58;;;1.40;;
78508;SDS011;67802;50.846;7.958;2023-05-31T12:41:49;4.55;;;1.45;;
78508;SDS011;67802;50.846;7.958;2023-05-31T12:44:19;4.90;;;1.75;;
78508;SDS011;67802;50.846;7.958;2023-05-31T12:46:46;4.30;;;1.60;;
78508;SDS011;67802;50.846;7.958;2023-05-31T12:49:13;3.70;;;1.27;;
78508;SDS011;67802;50.846;7.958;2023-05-31T12:51:43;8.85;;;2.17;;
78508;SDS011;67802;50.846;7.958;2023-05-31T12:54:12;9.70;;;1.70;;
78508;SDS011;67802;50.846;7.958;2023-05-31T12:56:38;5.72;;;1.92;;
78508;SDS011;67802;50.846;7.958;2023-05-31T12:59:03;5.40;;;2.05;;
78508;SDS011;67802;50.846;7.958;2023-05-31T13:01:29;5.70;;;1.60;;
78508;SDS011;67802;50.846;7.958;2023-05-31T13:03:55;5.05;;;1.63;;
78508;SDS011;67802;50.846;7.958;2023-05-31T13:06:20;3.65;;;1.40;;
78508;SDS011;67802;50.846;7.958;2023-05-31T13:08:45;4.72;;;1.70;;
78508;SDS011;67802;50.846;7.958;2023-05-31T13:11:11;3.92;;;1.52;;
78508;SDS011;67802;50.846;7.958;2023-05-31T13:13:36;3.05;;;1.70;;
78508;SDS011;67802;50.846;7.958;2023-05-31T13:16:01;4.73;;;1.77;;
78508;SDS011;67802;50.846;7.958;2023-05-31T13:18:29;4.80;;;1.70;;
78508;SDS011;67802;50.846;7.958;2023-05-31T13:20:55;4.57;;;1.38;;
78508;SDS011;67802;50.846;7.958;2023-05-31T13:23:21;4.07;;;1.67;;
78508;SDS011;67802;50.846;7.958;2023-05-31T13:25:47;4.43;;;1.67;;
78508;SDS011;67802;50.846;7.958;2023-05-31T13:28:12;5.40;;;1.80;;
78508;SDS011;67802;50.846;7.958;2023-05-31T13:30:37;3.75;;;1.50;;
78508;SDS011;67802;50.846;7.958;2023-05-31T13:33:04;3.50;;;1.60;;
78508;SDS011;67802;50.846;7.958;2023-05-31T13:35:29;3.25;;;1.60;;
78508;SDS011;67802;50.846;7.958;2023-05-31T13:37:54;4.15;;;1.70;;
78508;SDS011;67802;50.846;7.958;2023-05-31T13:40:20;4.45;;;1.67;;
78508;SDS011;67802;50.846;7.958;2023-05-31T13:42:45;4.18;;;1.65;;
78508;SDS011;67802;50.846;7.958;2023-05-31T13:45:11;4.68;;;1.70;;
78508;SDS011;67802;50.846;7.958;2023-05-31T13:47:36;3.83;;;1.60;;
78508;SDS011;67802;50.846;7.958;2023-05-31T13:50:02;4.60;;;1.88;;
78508;SDS011;67802;50.846;7.958;2023-05-31T13:52:28;4.53;;;1.70;;
78508;SDS011;67802;50.846;7.958;2023-05-31T13:54:53;6.72;;;1.75;;
78508;SDS011;67802;50.846;7.958;2023-05-31T13:57:18;5.65;;;1.65;;
78508;SDS011;67802;50.846;7.958;2023-05-31T13:59:44;4.05;;;1.55;;
78508;SDS011;67802;50.846;7.958;2023-05-31T14:02:09;4.85;;;2.10;;
78508;SDS011;67802;50.846;7.958;2023-05-31T14:04:34;4.47;;;1.70;;
78508;SDS011;67802;50.846;7.958;2023-05-31T14:07:00;5.15;;;1.45;;
78508;SDS011;67802;50.846;7.958;2023-05-31T14:09:26;4.45;;;1.73;;
78508;SDS011;67802;50.846;7.958;2023-05-31T14:11:51;4.45;;;1.90;;
78508;SDS011;67802;50.846;7.958;2023-05-31T14:14:17;4.35;;;1.55;;
78508;SDS011;67802;50.846;7.958;2023-05-31T14:16:42;4.05;;;1.73;;
78508;SDS011;67802;50.846;7.958;2023-05-31T14:19:07;3.65;;;1.55;;
78508;SDS011;67802;50.846;7.958;2023-05-31T14:21:33;5.22;;;2.08;;
78508;SDS011;67802;50.846;7.958;2023-05-31T14:23:58;3.15;;;1.50;;
78508;SDS011;67802;50.846;7.958;2023-05-31T14:26:24;3.83;;;1.73;;
78508;SDS011;67802;50.846;7.958;2023-05-31T14:28:49;4.30;;;1.80;;
78508;SDS011;67802;50.846;7.958;2023-05-31T14:31:14;3.85;;;1.55;;
78508;SDS011;67802;50.846;7.958;2023-05-31T14:33:39;3.17;;;1.30;;
78508;SDS011;67802;50.846;7.958;2023-05-31T14:36:05;6.07;;;1.80;;
78508;SDS011;67802;50.846;7.958;2023-05-31T14:38:30;5.05;;;1.60;;
78508;SDS011;67802;50.846;7.958;2023-05-31T14:40:56;3.95;;;1.70;;
78508;SDS011;67802;50.846;7.958;2023-05-31T14:43:21;4.68;;;1.83;;
78508;SDS011;67802;50.846;7.958;2023-05-31T14:45:46;6.97;;;1.83;;
78508;SDS011;67802;50.846;7.958;2023-05-31T14:48:12;4.30;;;1.70;;
78508;SDS011;67802;50.846;7.958;2023-05-31T14:50:38;5.38;;;1.73;;
78508;SDS011;67802;50.846;7.958;2023-05-31T14:53:03;4.15;;;1.55;;
78508;SDS011;67802;50.846;7.958;2023-05-31T14:55:28;3.83;;;1.55;;
78508;SDS011;67802;50.846;7.958;2023-05-31T14:57:53;5.00;;;1.77;;
78508;SDS011;67802;50.846;7.958;2023-05-31T15:00:19;3.67;;;1.60;;
78508;SDS011;67802;50.846;7.958;2023-05-31T15:02:44;5.97;;;1.60;;
78508;SDS011;67802;50.846;7.958;2023-05-31T15:05:10;4.55;;;1.63;;
78508;SDS011;67802;50.846;7.958;2023-05-31T15:07:36;4.65;;;1.70;;
78508;SDS011;67802;50.846;7.958;2023-05-31T15:10:02;4.25;;;1.52;;
78508;SDS011;67802;50.846;7.958;2023-05-31T15:12:28;4.63;;;1.60;;
78508;SDS011;67802;50.846;7.958;2023-05-31T15:14:53;3.70;;;1.40;;